臺北飛航情報區 - 掃描席(區管/近場)

METAR RCTP 191730Z 21006KT 9999 FEW015 SCT045 BKN160 23/21 Q1009 NOSIG RMK A2980(R)=

站台狀態:Online
最後更新:2024-04-20 01:30:03